sensor_id;sensor_type;location;lat;lon;timestamp;temperature;humidity
6146;DHT22;3104;50.348;7.620;2023-05-15T00:00:25;12.90;61.50
6146;DHT22;3104;50.348;7.620;2023-05-15T00:02:51;12.80;99.80
6146;DHT22;3104;50.348;7.620;2023-05-15T00:05:16;12.80;99.90
6146;DHT22;3104;50.348;7.620;2023-05-15T00:07:42;12.90;99.90
6146;DHT22;3104;50.348;7.620;2023-05-15T00:10:08;12.80;99.50
6146;DHT22;3104;50.348;7.620;2023-05-15T00:12:33;12.80;99.90
6146;DHT22;3104;50.348;7.620;2023-05-15T00:14:59;12.70;99.90
6146;DHT22;3104;50.348;7.620;2023-05-15T00:17:25;12.70;99.90
6146;DHT22;3104;50.348;7.620;2023-05-15T00:19:50;12.60;99.90
6146;DHT22;3104;50.348;7.620;2023-05-15T00:22:19;12.60;99.90
6146;DHT22;3104;50.348;7.620;2023-05-15T00:24:44;12.50;99.90
6146;DHT22;3104;50.348;7.620;2023-05-15T00:27:10;12.60;99.90
6146;DHT22;3104;50.348;7.620;2023-05-15T00:29:35;12.70;99.90
6146;DHT22;3104;50.348;7.620;2023-05-15T00:32:01;12.80;92.50
6146;DHT22;3104;50.348;7.620;2023-05-15T00:34:27;12.80;98.40
6146;DHT22;3104;50.348;7.620;2023-05-15T00:36:52;12.90;71.10
6146;DHT22;3104;50.348;7.620;2023-05-15T00:39:18;12.70;51.70
6146;DHT22;3104;50.348;7.620;2023-05-15T00:41:44;12.70;90.90
6146;DHT22;3104;50.348;7.620;2023-05-15T00:44:10;12.50;99.90
6146;DHT22;3104;50.348;7.620;2023-05-15T00:46:37;12.60;99.90
6146;DHT22;3104;50.348;7.620;2023-05-15T00:49:04;12.50;99.90
6146;DHT22;3104;50.348;7.620;2023-05-15T00:51:31;12.40;99.90
6146;DHT22;3104;50.348;7.620;2023-05-15T00:53:58;12.40;99.90
6146;DHT22;3104;50.348;7.620;2023-05-15T00:56:24;12.40;99.90
6146;DHT22;3104;50.348;7.620;2023-05-15T00:58:49;12.30;99.90
6146;DHT22;3104;50.348;7.620;2023-05-15T01:01:16;12.30;99.90
6146;DHT22;3104;50.348;7.620;2023-05-15T01:03:43;12.40;99.90
6146;DHT22;3104;50.348;7.620;2023-05-15T01:06:09;12.30;99.90
6146;DHT22;3104;50.348;7.620;2023-05-15T01:08:44;12.30;99.90
6146;DHT22;3104;50.348;7.620;2023-05-15T01:11:12;12.30;99.90
6146;DHT22;3104;50.348;7.620;2023-05-15T01:13:38;12.30;99.90
6146;DHT22;3104;50.348;7.620;2023-05-15T01:16:05;12.20;99.90
6146;DHT22;3104;50.348;7.620;2023-05-15T01:18:31;12.10;99.90
6146;DHT22;3104;50.348;7.620;2023-05-15T01:21:05;12.00;99.90
6146;DHT22;3104;50.348;7.620;2023-05-15T01:29:09;12.10;99.90
6146;DHT22;3104;50.348;7.620;2023-05-15T01:31:37;12.20;99.90
6146;DHT22;3104;50.348;7.620;2023-05-15T01:34:07;12.20;99.90
6146;DHT22;3104;50.348;7.620;2023-05-15T01:36:51;12.20;99.90
6146;DHT22;3104;50.348;7.620;2023-05-15T01:39:20;12.00;99.90
6146;DHT22;3104;50.348;7.620;2023-05-15T01:41:59;11.90;99.90
6146;DHT22;3104;50.348;7.620;2023-05-15T01:44:29;11.80;99.90
6146;DHT22;3104;50.348;7.620;2023-05-15T01:46:58;11.80;99.90
6146;DHT22;3104;50.348;7.620;2023-05-15T01:49:26;11.80;99.90
6146;DHT22;3104;50.348;7.620;2023-05-15T01:52:28;12.30;99.90
6146;DHT22;3104;50.348;7.620;2023-05-15T01:54:53;12.20;99.90
6146;DHT22;3104;50.348;7.620;2023-05-15T01:57:20;12.30;99.90
6146;DHT22;3104;50.348;7.620;2023-05-15T01:59:46;12.10;99.90
6146;DHT22;3104;50.348;7.620;2023-05-15T02:02:13;11.80;99.90
6146;DHT22;3104;50.348;7.620;2023-05-15T02:04:40;11.70;99.90
6146;DHT22;3104;50.348;7.620;2023-05-15T02:07:06;11.70;99.90
6146;DHT22;3104;50.348;7.620;2023-05-15T02:09:33;11.80;99.90
6146;DHT22;3104;50.348;7.620;2023-05-15T02:12:00;11.60;99.90
6146;DHT22;3104;50.348;7.620;2023-05-15T02:14:28;11.50;99.90
6146;DHT22;3104;50.348;7.620;2023-05-15T02:16:54;11.40;99.90
6146;DHT22;3104;50.348;7.620;2023-05-15T02:19:20;11.30;99.90
6146;DHT22;3104;50.348;7.620;2023-05-15T02:21:45;11.20;99.90
6146;DHT22;3104;50.348;7.620;2023-05-15T02:24:11;11.20;99.90
6146;DHT22;3104;50.348;7.620;2023-05-15T02:30:02;11.20;99.90
6146;DHT22;3104;50.348;7.620;2023-05-15T02:37:49;11.20;99.90
6146;DHT22;3104;50.348;7.620;2023-05-15T02:40:18;11.30;99.90
6146;DHT22;3104;50.348;7.620;2023-05-15T02:42:45;11.60;99.90
6146;DHT22;3104;50.348;7.620;2023-05-15T02:45:11;11.70;99.90
6146;DHT22;3104;50.348;7.620;2023-05-15T02:47:38;11.70;99.90
6146;DHT22;3104;50.348;7.620;2023-05-15T02:50:05;11.60;99.90
6146;DHT22;3104;50.348;7.620;2023-05-15T02:52:32;11.50;99.90
6146;DHT22;3104;50.348;7.620;2023-05-15T02:54:59;11.50;99.90
6146;DHT22;3104;50.348;7.620;2023-05-15T02:57:25;11.50;99.90
6146;DHT22;3104;50.348;7.620;2023-05-15T02:59:52;11.60;99.90
6146;DHT22;3104;50.348;7.620;2023-05-15T03:02:18;11.40;99.90
6146;DHT22;3104;50.348;7.620;2023-05-15T03:04:43;11.30;99.90
6146;DHT22;3104;50.348;7.620;2023-05-15T03:07:09;11.30;99.90
6146;DHT22;3104;50.348;7.620;2023-05-15T03:09:34;11.40;99.90
6146;DHT22;3104;50.348;7.620;2023-05-15T03:12:00;11.30;99.90
6146;DHT22;3104;50.348;7.620;2023-05-15T03:14:25;11.30;99.90
6146;DHT22;3104;50.348;7.620;2023-05-15T03:16:51;11.30;99.90
6146;DHT22;3104;50.348;7.620;2023-05-15T03:19:16;11.50;99.90
6146;DHT22;3104;50.348;7.620;2023-05-15T03:21:43;11.40;99.90
6146;DHT22;3104;50.348;7.620;2023-05-15T03:24:08;11.30;99.90
6146;DHT22;3104;50.348;7.620;2023-05-15T03:26:34;11.30;99.90
6146;DHT22;3104;50.348;7.620;2023-05-15T03:29:00;11.20;99.90
6146;DHT22;3104;50.348;7.620;2023-05-15T03:31:26;11.30;99.90
6146;DHT22;3104;50.348;7.620;2023-05-15T03:33:52;11.40;99.90
6146;DHT22;3104;50.348;7.620;2023-05-15T03:36:17;11.40;99.90
6146;DHT22;3104;50.348;7.620;2023-05-15T03:38:43;11.70;99.90
6146;DHT22;3104;50.348;7.620;2023-05-15T03:41:11;11.70;99.90
6146;DHT22;3104;50.348;7.620;2023-05-15T03:43:37;11.60;99.90
6146;DHT22;3104;50.348;7.620;2023-05-15T03:46:02;11.50;99.90
6146;DHT22;3104;50.348;7.620;2023-05-15T03:48:28;11.80;99.90
6146;DHT22;3104;50.348;7.620;2023-05-15T03:50:53;12.20;99.90
6146;DHT22;3104;50.348;7.620;2023-05-15T03:53:19;12.10;99.90
6146;DHT22;3104;50.348;7.620;2023-05-15T03:55:45;12.00;99.90
6146;DHT22;3104;50.348;7.620;2023-05-15T03:58:10;11.80;99.90
6146;DHT22;3104;50.348;7.620;2023-05-15T04:00:36;11.80;99.90
6146;DHT22;3104;50.348;7.620;2023-05-15T04:03:01;11.70;99.90
6146;DHT22;3104;50.348;7.620;2023-05-15T04:05:27;11.70;99.90
6146;DHT22;3104;50.348;7.620;2023-05-15T04:07:52;11.80;99.90
6146;DHT22;3104;50.348;7.620;2023-05-15T04:10:18;11.80;99.90
6146;DHT22;3104;50.348;7.620;2023-05-15T04:12:44;11.80;99.90
6146;DHT22;3104;50.348;7.620;2023-05-15T04:15:21;11.80;99.90
6146;DHT22;3104;50.348;7.620;2023-05-15T04:17:49;11.80;99.90
6146;DHT22;3104;50.348;7.620;2023-05-15T04:20:16;11.90;99.90
6146;DHT22;3104;50.348;7.620;2023-05-15T04:22:43;11.90;99.90
6146;DHT22;3104;50.348;7.620;2023-05-15T04:25:09;11.90;99.90
6146;DHT22;3104;50.348;7.620;2023-05-15T04:27:36;11.90;99.90
6146;DHT22;3104;50.348;7.620;2023-05-15T04:30:02;12.00;99.90
6146;DHT22;3104;50.348;7.620;2023-05-15T04:32:29;12.00;99.90
6146;DHT22;3104;50.348;7.620;2023-05-15T04:34:55;12.10;99.90
6146;DHT22;3104;50.348;7.620;2023-05-15T04:37:21;12.10;99.90
6146;DHT22;3104;50.348;7.620;2023-05-15T04:39:47;12.10;99.90
6146;DHT22;3104;50.348;7.620;2023-05-15T04:42:12;12.20;99.90
6146;DHT22;3104;50.348;7.620;2023-05-15T04:44:38;12.20;99.90
6146;DHT22;3104;50.348;7.620;2023-05-15T04:47:03;12.20;99.90
6146;DHT22;3104;50.348;7.620;2023-05-15T04:49:29;12.20;99.90
6146;DHT22;3104;50.348;7.620;2023-05-15T04:51:55;12.20;99.90
6146;DHT22;3104;50.348;7.620;2023-05-15T04:54:20;12.20;99.90
6146;DHT22;3104;50.348;7.620;2023-05-15T04:56:46;12.30;99.90
6146;DHT22;3104;50.348;7.620;2023-05-15T04:59:11;12.40;99.90
6146;DHT22;3104;50.348;7.620;2023-05-15T05:01:38;12.40;99.90
6146;DHT22;3104;50.348;7.620;2023-05-15T05:04:03;12.40;99.90
6146;DHT22;3104;50.348;7.620;2023-05-15T05:06:29;12.40;99.90
6146;DHT22;3104;50.348;7.620;2023-05-15T05:08:55;12.40;99.90
6146;DHT22;3104;50.348;7.620;2023-05-15T05:11:20;12.40;99.90
6146;DHT22;3104;50.348;7.620;2023-05-15T05:13:46;12.50;99.90
6146;DHT22;3104;50.348;7.620;2023-05-15T05:16:13;12.50;99.90
6146;DHT22;3104;50.348;7.620;2023-05-15T05:18:38;12.50;99.90
6146;DHT22;3104;50.348;7.620;2023-05-15T05:21:04;12.60;99.90
6146;DHT22;3104;50.348;7.620;2023-05-15T05:23:29;12.70;99.90
6146;DHT22;3104;50.348;7.620;2023-05-15T05:25:55;12.70;99.90
6146;DHT22;3104;50.348;7.620;2023-05-15T05:28:21;12.70;99.90
6146;DHT22;3104;50.348;7.620;2023-05-15T05:30:47;12.90;99.90
6146;DHT22;3104;50.348;7.620;2023-05-15T05:33:13;13.00;99.90
6146;DHT22;3104;50.348;7.620;2023-05-15T05:35:39;13.00;99.90
6146;DHT22;3104;50.348;7.620;2023-05-15T05:38:05;13.20;99.90
6146;DHT22;3104;50.348;7.620;2023-05-15T05:40:30;13.20;99.90
6146;DHT22;3104;50.348;7.620;2023-05-15T05:43:00;13.00;99.90
6146;DHT22;3104;50.348;7.620;2023-05-15T05:45:26;12.90;99.90
6146;DHT22;3104;50.348;7.620;2023-05-15T05:47:53;13.00;99.90
6146;DHT22;3104;50.348;7.620;2023-05-15T05:50:19;12.90;99.90
6146;DHT22;3104;50.348;7.620;2023-05-15T05:52:45;13.10;99.90
6146;DHT22;3104;50.348;7.620;2023-05-15T05:55:10;13.10;99.90
6146;DHT22;3104;50.348;7.620;2023-05-15T05:57:36;13.20;99.90
6146;DHT22;3104;50.348;7.620;2023-05-15T06:00:01;13.30;99.90
6146;DHT22;3104;50.348;7.620;2023-05-15T06:02:29;13.40;99.90
6146;DHT22;3104;50.348;7.620;2023-05-15T06:04:54;13.40;99.90
6146;DHT22;3104;50.348;7.620;2023-05-15T06:07:20;13.40;99.90
6146;DHT22;3104;50.348;7.620;2023-05-15T06:09:46;13.30;99.90
6146;DHT22;3104;50.348;7.620;2023-05-15T06:12:13;13.40;99.90
6146;DHT22;3104;50.348;7.620;2023-05-15T06:14:38;13.30;99.90
6146;DHT22;3104;50.348;7.620;2023-05-15T06:17:04;13.50;99.90
6146;DHT22;3104;50.348;7.620;2023-05-15T06:19:30;13.40;99.90
6146;DHT22;3104;50.348;7.620;2023-05-15T06:21:56;13.50;99.90
6146;DHT22;3104;50.348;7.620;2023-05-15T06:24:21;13.50;99.90
6146;DHT22;3104;50.348;7.620;2023-05-15T06:26:47;13.50;99.90
6146;DHT22;3104;50.348;7.620;2023-05-15T06:29:12;13.70;99.90
6146;DHT22;3104;50.348;7.620;2023-05-15T06:31:38;14.00;99.90
6146;DHT22;3104;50.348;7.620;2023-05-15T06:34:03;13.90;99.90
6146;DHT22;3104;50.348;7.620;2023-05-15T06:36:29;13.90;99.90
6146;DHT22;3104;50.348;7.620;2023-05-15T06:38:54;13.90;99.90
6146;DHT22;3104;50.348;7.620;2023-05-15T06:41:20;14.10;99.90
6146;DHT22;3104;50.348;7.620;2023-05-15T06:43:46;14.10;96.20
6146;DHT22;3104;50.348;7.620;2023-05-15T06:46:11;14.10;97.00
6146;DHT22;3104;50.348;7.620;2023-05-15T06:48:40;14.10;99.90
6146;DHT22;3104;50.348;7.620;2023-05-15T06:51:06;14.10;99.90
6146;DHT22;3104;50.348;7.620;2023-05-15T06:53:31;14.20;99.90
6146;DHT22;3104;50.348;7.620;2023-05-15T06:55:57;14.30;74.40
6146;DHT22;3104;50.348;7.620;2023-05-15T06:58:23;14.30;4.80
6146;DHT22;3104;50.348;7.620;2023-05-15T07:00:49;14.30;1.00
6146;DHT22;3104;50.348;7.620;2023-05-15T07:03:14;14.40;4.50
6146;DHT22;3104;50.348;7.620;2023-05-15T07:05:41;14.40;1.00
6146;DHT22;3104;50.348;7.620;2023-05-15T07:08:06;14.40;21.60
6146;DHT22;3104;50.348;7.620;2023-05-15T07:10:32;14.30;37.80
6146;DHT22;3104;50.348;7.620;2023-05-15T07:12:58;14.30;7.40
6146;DHT22;3104;50.348;7.620;2023-05-15T07:15:23;14.10;38.20
6146;DHT22;3104;50.348;7.620;2023-05-15T07:17:49;14.20;41.30
6146;DHT22;3104;50.348;7.620;2023-05-15T07:20:14;14.20;87.30
6146;DHT22;3104;50.348;7.620;2023-05-15T07:22:40;14.20;63.30
6146;DHT22;3104;50.348;7.620;2023-05-15T07:25:06;14.20;55.20
6146;DHT22;3104;50.348;7.620;2023-05-15T07:27:31;14.20;30.30
6146;DHT22;3104;50.348;7.620;2023-05-15T07:29:57;14.30;71.50
6146;DHT22;3104;50.348;7.620;2023-05-15T07:32:22;14.30;72.90
6146;DHT22;3104;50.348;7.620;2023-05-15T07:34:48;14.40;77.20
6146;DHT22;3104;50.348;7.620;2023-05-15T07:37:14;14.60;26.50
6146;DHT22;3104;50.348;7.620;2023-05-15T07:39:39;14.70;1.00
6146;DHT22;3104;50.348;7.620;2023-05-15T07:42:05;14.60;1.00
6146;DHT22;3104;50.348;7.620;2023-05-15T07:44:30;14.60;1.00
6146;DHT22;3104;50.348;7.620;2023-05-15T07:46:57;14.60;1.00
6146;DHT22;3104;50.348;7.620;2023-05-15T07:49:23;14.60;1.00
6146;DHT22;3104;50.348;7.620;2023-05-15T07:51:48;14.70;1.00
6146;DHT22;3104;50.348;7.620;2023-05-15T07:54:14;14.70;1.00
6146;DHT22;3104;50.348;7.620;2023-05-15T07:56:40;14.90;1.00
6146;DHT22;3104;50.348;7.620;2023-05-15T07:59:06;14.90;1.00
6146;DHT22;3104;50.348;7.620;2023-05-15T08:01:32;14.90;1.00
6146;DHT22;3104;50.348;7.620;2023-05-15T08:03:57;14.90;1.00
6146;DHT22;3104;50.348;7.620;2023-05-15T08:06:23;15.00;1.00
6146;DHT22;3104;50.348;7.620;2023-05-15T08:08:48;15.10;1.00
6146;DHT22;3104;50.348;7.620;2023-05-15T08:11:14;15.00;1.00
6146;DHT22;3104;50.348;7.620;2023-05-15T08:13:40;15.00;1.00
6146;DHT22;3104;50.348;7.620;2023-05-15T08:16:05;14.80;1.00
6146;DHT22;3104;50.348;7.620;2023-05-15T08:18:31;14.80;99.90
6146;DHT22;3104;50.348;7.620;2023-05-15T08:20:57;14.90;99.90
6146;DHT22;3104;50.348;7.620;2023-05-15T08:23:22;14.90;99.90
6146;DHT22;3104;50.348;7.620;2023-05-15T08:25:48;14.90;1.00
6146;DHT22;3104;50.348;7.620;2023-05-15T08:28:14;15.00;1.00
6146;DHT22;3104;50.348;7.620;2023-05-15T08:30:39;15.00;1.00
6146;DHT22;3104;50.348;7.620;2023-05-15T08:33:05;14.80;1.00
6146;DHT22;3104;50.348;7.620;2023-05-15T08:35:31;14.80;1.00
6146;DHT22;3104;50.348;7.620;2023-05-15T08:37:57;15.00;1.00
6146;DHT22;3104;50.348;7.620;2023-05-15T08:40:22;14.90;1.00
6146;DHT22;3104;50.348;7.620;2023-05-15T08:42:55;15.10;1.00
6146;DHT22;3104;50.348;7.620;2023-05-15T08:45:25;14.90;1.00
6146;DHT22;3104;50.348;7.620;2023-05-15T08:47:50;15.20;1.00
6146;DHT22;3104;50.348;7.620;2023-05-15T08:50:16;15.10;1.00
6146;DHT22;3104;50.348;7.620;2023-05-15T08:52:46;15.20;1.00
6146;DHT22;3104;50.348;7.620;2023-05-15T08:55:14;15.30;99.90
6146;DHT22;3104;50.348;7.620;2023-05-15T08:57:40;15.30;1.00
6146;DHT22;3104;50.348;7.620;2023-05-15T09:00:06;14.90;77.50
6146;DHT22;3104;50.348;7.620;2023-05-15T09:02:34;14.80;99.90
6146;DHT22;3104;50.348;7.620;2023-05-15T09:05:00;14.80;99.90
6146;DHT22;3104;50.348;7.620;2023-05-15T09:07:29;14.80;99.90
6146;DHT22;3104;50.348;7.620;2023-05-15T09:09:56;14.80;99.90
6146;DHT22;3104;50.348;7.620;2023-05-15T09:12:23;15.00;99.90
6146;DHT22;3104;50.348;7.620;2023-05-15T09:14:49;14.90;99.90
6146;DHT22;3104;50.348;7.620;2023-05-15T09:17:15;14.90;99.90
6146;DHT22;3104;50.348;7.620;2023-05-15T09:19:41;15.10;1.00
6146;DHT22;3104;50.348;7.620;2023-05-15T09:22:18;15.40;1.00
6146;DHT22;3104;50.348;7.620;2023-05-15T09:24:48;15.60;99.90
6146;DHT22;3104;50.348;7.620;2023-05-15T09:27:16;15.90;99.90
6146;DHT22;3104;50.348;7.620;2023-05-15T09:29:41;16.30;1.00
6146;DHT22;3104;50.348;7.620;2023-05-15T09:32:13;16.50;9.80
6146;DHT22;3104;50.348;7.620;2023-05-15T09:34:41;16.80;99.90
6146;DHT22;3104;50.348;7.620;2023-05-15T09:37:08;16.80;1.00
6146;DHT22;3104;50.348;7.620;2023-05-15T09:39:43;16.30;1.00
6146;DHT22;3104;50.348;7.620;2023-05-15T09:42:13;16.10;1.00
6146;DHT22;3104;50.348;7.620;2023-05-15T09:44:42;16.10;1.00
6146;DHT22;3104;50.348;7.620;2023-05-15T09:47:09;15.90;1.00
6146;DHT22;3104;50.348;7.620;2023-05-15T09:49:35;16.10;1.00
6146;DHT22;3104;50.348;7.620;2023-05-15T09:52:01;16.00;1.00
6146;DHT22;3104;50.348;7.620;2023-05-15T09:54:29;16.00;29.50
6146;DHT22;3104;50.348;7.620;2023-05-15T09:56:55;16.00;99.90
6146;DHT22;3104;50.348;7.620;2023-05-15T09:59:22;16.10;99.90
6146;DHT22;3104;50.348;7.620;2023-05-15T10:01:49;16.10;99.90
6146;DHT22;3104;50.348;7.620;2023-05-15T10:04:16;16.10;1.00
6146;DHT22;3104;50.348;7.620;2023-05-15T10:06:44;16.10;1.00
6146;DHT22;3104;50.348;7.620;2023-05-15T10:09:10;15.80;1.00
6146;DHT22;3104;50.348;7.620;2023-05-15T10:11:41;15.90;1.00
6146;DHT22;3104;50.348;7.620;2023-05-15T10:14:11;16.10;99.90
6146;DHT22;3104;50.348;7.620;2023-05-15T10:16:38;16.40;1.00
6146;DHT22;3104;50.348;7.620;2023-05-15T10:19:09;16.80;49.20
6146;DHT22;3104;50.348;7.620;2023-05-15T10:21:37;16.90;1.00
6146;DHT22;3104;50.348;7.620;2023-05-15T10:24:03;17.20;1.00
6146;DHT22;3104;50.348;7.620;2023-05-15T10:26:40;17.00;1.00
6146;DHT22;3104;50.348;7.620;2023-05-15T10:29:19;16.90;99.90
6146;DHT22;3104;50.348;7.620;2023-05-15T10:31:47;17.60;1.00
6146;DHT22;3104;50.348;7.620;2023-05-15T10:34:13;17.40;99.90
6146;DHT22;3104;50.348;7.620;2023-05-15T10:36:39;17.70;1.00
6146;DHT22;3104;50.348;7.620;2023-05-15T10:39:06;17.60;99.90
6146;DHT22;3104;50.348;7.620;2023-05-15T10:41:35;17.60;99.90
6146;DHT22;3104;50.348;7.620;2023-05-15T10:44:01;17.20;99.90
6146;DHT22;3104;50.348;7.620;2023-05-15T10:46:28;17.00;99.90
6146;DHT22;3104;50.348;7.620;2023-05-15T10:48:55;17.60;1.00
6146;DHT22;3104;50.348;7.620;2023-05-15T10:51:26;17.60;1.00
6146;DHT22;3104;50.348;7.620;2023-05-15T10:53:53;18.00;99.90
6146;DHT22;3104;50.348;7.620;2023-05-15T10:56:19;18.80;1.00
6146;DHT22;3104;50.348;7.620;2023-05-15T10:58:50;18.20;99.90
6146;DHT22;3104;50.348;7.620;2023-05-15T11:01:32;17.90;98.80
6146;DHT22;3104;50.348;7.620;2023-05-15T11:04:16;18.20;1.00
6146;DHT22;3104;50.348;7.620;2023-05-15T11:06:46;19.10;99.90
6146;DHT22;3104;50.348;7.620;2023-05-15T11:14:23;19.80;92.20
6146;DHT22;3104;50.348;7.620;2023-05-15T11:25:06;19.80;1.00
6146;DHT22;3104;50.348;7.620;2023-05-15T11:30:21;20.80;27.70
6146;DHT22;3104;50.348;7.620;2023-05-15T11:35:13;19.90;20.90
6146;DHT22;3104;50.348;7.620;2023-05-15T11:37:44;20.10;17.30
6146;DHT22;3104;50.348;7.620;2023-05-15T11:45:28;20.50;1.00
6146;DHT22;3104;50.348;7.620;2023-05-15T11:47:54;20.80;1.00
6146;DHT22;3104;50.348;7.620;2023-05-15T11:50:20;21.20;1.00
6146;DHT22;3104;50.348;7.620;2023-05-15T11:52:48;21.30;1.00
6146;DHT22;3104;50.348;7.620;2023-05-15T11:55:15;21.50;1.00
6146;DHT22;3104;50.348;7.620;2023-05-15T11:57:48;21.40;1.00
6146;DHT22;3104;50.348;7.620;2023-05-15T12:00:13;21.00;99.90
6146;DHT22;3104;50.348;7.620;2023-05-15T12:02:40;21.00;99.90
6146;DHT22;3104;50.348;7.620;2023-05-15T12:05:06;20.80;99.90
6146;DHT22;3104;50.348;7.620;2023-05-15T12:07:37;20.80;99.90
6146;DHT22;3104;50.348;7.620;2023-05-15T12:10:03;20.70;99.90
6146;DHT22;3104;50.348;7.620;2023-05-15T12:12:29;21.40;99.90
6146;DHT22;3104;50.348;7.620;2023-05-15T12:14:58;21.20;99.90
6146;DHT22;3104;50.348;7.620;2023-05-15T12:17:24;20.90;99.90
6146;DHT22;3104;50.348;7.620;2023-05-15T12:19:50;20.70;99.90
6146;DHT22;3104;50.348;7.620;2023-05-15T12:22:16;20.40;99.90
6146;DHT22;3104;50.348;7.620;2023-05-15T12:24:43;20.50;1.00
6146;DHT22;3104;50.348;7.620;2023-05-15T12:27:10;20.90;1.00
6146;DHT22;3104;50.348;7.620;2023-05-15T12:29:37;20.80;99.90
6146;DHT22;3104;50.348;7.620;2023-05-15T12:32:04;20.80;1.00
6146;DHT22;3104;50.348;7.620;2023-05-15T12:34:30;21.50;99.90
6146;DHT22;3104;50.348;7.620;2023-05-15T12:36:55;21.70;99.90
6146;DHT22;3104;50.348;7.620;2023-05-15T12:39:24;21.10;99.90
6146;DHT22;3104;50.348;7.620;2023-05-15T12:41:50;20.70;99.90
6146;DHT22;3104;50.348;7.620;2023-05-15T12:44:18;20.70;99.90
6146;DHT22;3104;50.348;7.620;2023-05-15T12:46:45;21.40;99.90
6146;DHT22;3104;50.348;7.620;2023-05-15T12:49:11;21.30;99.90
6146;DHT22;3104;50.348;7.620;2023-05-15T12:51:43;21.50;99.90
6146;DHT22;3104;50.348;7.620;2023-05-15T12:54:17;21.70;99.90
6146;DHT22;3104;50.348;7.620;2023-05-15T12:56:42;21.90;1.00
6146;DHT22;3104;50.348;7.620;2023-05-15T12:59:09;22.30;1.00
6146;DHT22;3104;50.348;7.620;2023-05-15T13:01:35;22.50;1.00
6146;DHT22;3104;50.348;7.620;2023-05-15T13:04:01;22.20;1.00
6146;DHT22;3104;50.348;7.620;2023-05-15T13:06:27;21.90;1.00
6146;DHT22;3104;50.348;7.620;2023-05-15T13:08:53;21.40;1.00
6146;DHT22;3104;50.348;7.620;2023-05-15T13:11:19;22.10;1.00
6146;DHT22;3104;50.348;7.620;2023-05-15T13:13:47;22.50;1.00
6146;DHT22;3104;50.348;7.620;2023-05-15T13:16:26;21.90;1.00
6146;DHT22;3104;50.348;7.620;2023-05-15T13:18:54;21.80;1.00
6146;DHT22;3104;50.348;7.620;2023-05-15T13:21:21;21.40;1.00
6146;DHT22;3104;50.348;7.620;2023-05-15T13:23:46;21.40;1.00
6146;DHT22;3104;50.348;7.620;2023-05-15T13:26:12;21.30;1.00
6146;DHT22;3104;50.348;7.620;2023-05-15T13:28:37;21.60;1.00
6146;DHT22;3104;50.348;7.620;2023-05-15T13:31:03;22.20;1.00
6146;DHT22;3104;50.348;7.620;2023-05-15T13:33:29;21.90;1.00
6146;DHT22;3104;50.348;7.620;2023-05-15T13:35:55;21.70;1.00
6146;DHT22;3104;50.348;7.620;2023-05-15T13:38:21;21.80;1.00
6146;DHT22;3104;50.348;7.620;2023-05-15T13:40:47;21.70;1.00
6146;DHT22;3104;50.348;7.620;2023-05-15T13:43:12;21.70;1.00
6146;DHT22;3104;50.348;7.620;2023-05-15T13:45:38;22.10;1.00
6146;DHT22;3104;50.348;7.620;2023-05-15T13:48:04;22.10;1.00
6146;DHT22;3104;50.348;7.620;2023-05-15T13:50:29;21.90;1.00
6146;DHT22;3104;50.348;7.620;2023-05-15T13:52:55;21.70;1.00
6146;DHT22;3104;50.348;7.620;2023-05-15T13:55:20;21.40;1.00
6146;DHT22;3104;50.348;7.620;2023-05-15T13:57:46;21.00;1.00
6146;DHT22;3104;50.348;7.620;2023-05-15T14:00:12;20.90;1.00
6146;DHT22;3104;50.348;7.620;2023-05-15T14:02:39;21.40;1.00
6146;DHT22;3104;50.348;7.620;2023-05-15T14:05:06;21.10;1.00
6146;DHT22;3104;50.348;7.620;2023-05-15T14:07:31;20.70;1.00
6146;DHT22;3104;50.348;7.620;2023-05-15T14:09:57;20.90;1.00
6146;DHT22;3104;50.348;7.620;2023-05-15T14:12:23;21.40;1.00
6146;DHT22;3104;50.348;7.620;2023-05-15T14:14:48;21.50;1.00
6146;DHT22;3104;50.348;7.620;2023-05-15T14:17:14;21.60;1.00
6146;DHT22;3104;50.348;7.620;2023-05-15T14:19:41;21.80;1.00
6146;DHT22;3104;50.348;7.620;2023-05-15T14:22:06;21.00;1.00
6146;DHT22;3104;50.348;7.620;2023-05-15T14:24:32;20.80;1.00
6146;DHT22;3104;50.348;7.620;2023-05-15T14:26:57;20.50;1.00
6146;DHT22;3104;50.348;7.620;2023-05-15T14:29:23;21.00;1.00
6146;DHT22;3104;50.348;7.620;2023-05-15T14:31:49;21.60;1.00
6146;DHT22;3104;50.348;7.620;2023-05-15T14:34:15;22.00;1.00
6146;DHT22;3104;50.348;7.620;2023-05-15T14:36:41;21.80;1.00
6146;DHT22;3104;50.348;7.620;2023-05-15T14:39:06;20.90;1.00
6146;DHT22;3104;50.348;7.620;2023-05-15T14:41:32;20.80;1.00
6146;DHT22;3104;50.348;7.620;2023-05-15T14:43:57;21.00;1.00
6146;DHT22;3104;50.348;7.620;2023-05-15T14:46:23;21.00;1.00
6146;DHT22;3104;50.348;7.620;2023-05-15T14:48:48;20.90;1.00
6146;DHT22;3104;50.348;7.620;2023-05-15T14:51:14;21.00;1.00
6146;DHT22;3104;50.348;7.620;2023-05-15T14:53:40;21.00;1.00
6146;DHT22;3104;50.348;7.620;2023-05-15T14:56:06;20.80;1.00
6146;DHT22;3104;50.348;7.620;2023-05-15T14:58:31;20.90;1.00
6146;DHT22;3104;50.348;7.620;2023-05-15T15:00:57;20.60;1.00
6146;DHT22;3104;50.348;7.620;2023-05-15T15:03:23;20.50;1.00
6146;DHT22;3104;50.348;7.620;2023-05-15T15:05:49;21.10;1.00
6146;DHT22;3104;50.348;7.620;2023-05-15T15:08:16;21.40;1.00
6146;DHT22;3104;50.348;7.620;2023-05-15T15:10:42;21.20;1.00
6146;DHT22;3104;50.348;7.620;2023-05-15T15:13:08;20.60;1.00
6146;DHT22;3104;50.348;7.620;2023-05-15T15:15:36;20.80;1.00
6146;DHT22;3104;50.348;7.620;2023-05-15T15:18:01;20.70;1.00
6146;DHT22;3104;50.348;7.620;2023-05-15T15:20:27;20.70;99.90
6146;DHT22;3104;50.348;7.620;2023-05-15T15:22:53;20.80;99.90
6146;DHT22;3104;50.348;7.620;2023-05-15T15:25:20;20.80;1.00
6146;DHT22;3104;50.348;7.620;2023-05-15T15:27:47;21.10;1.00
6146;DHT22;3104;50.348;7.620;2023-05-15T15:30:13;21.30;1.00
6146;DHT22;3104;50.348;7.620;2023-05-15T15:32:41;21.70;1.00
6146;DHT22;3104;50.348;7.620;2023-05-15T15:35:07;21.80;1.00
6146;DHT22;3104;50.348;7.620;2023-05-15T15:37:34;21.70;1.00
6146;DHT22;3104;50.348;7.620;2023-05-15T15:40:01;21.10;1.00
6146;DHT22;3104;50.348;7.620;2023-05-15T15:42:27;20.40;1.00
6146;DHT22;3104;50.348;7.620;2023-05-15T15:44:53;20.40;1.00
6146;DHT22;3104;50.348;7.620;2023-05-15T15:47:19;20.50;1.00
6146;DHT22;3104;50.348;7.620;2023-05-15T15:49:45;20.60;1.00
6146;DHT22;3104;50.348;7.620;2023-05-15T15:52:10;20.90;1.00
6146;DHT22;3104;50.348;7.620;2023-05-15T15:54:36;21.10;1.00
6146;DHT22;3104;50.348;7.620;2023-05-15T15:57:03;21.20;1.00
6146;DHT22;3104;50.348;7.620;2023-05-15T15:59:28;20.80;1.00
6146;DHT22;3104;50.348;7.620;2023-05-15T16:01:54;20.40;1.00
6146;DHT22;3104;50.348;7.620;2023-05-15T16:04:20;20.00;1.00
6146;DHT22;3104;50.348;7.620;2023-05-15T16:06:46;20.00;99.90
6146;DHT22;3104;50.348;7.620;2023-05-15T16:09:11;19.70;99.90
6146;DHT22;3104;50.348;7.620;2023-05-15T16:11:37;19.80;99.90
6146;DHT22;3104;50.348;7.620;2023-05-15T16:14:02;19.70;99.90
6146;DHT22;3104;50.348;7.620;2023-05-15T16:16:28;19.80;99.90
6146;DHT22;3104;50.348;7.620;2023-05-15T16:18:54;19.60;99.90
6146;DHT22;3104;50.348;7.620;2023-05-15T16:21:20;19.70;99.90
6146;DHT22;3104;50.348;7.620;2023-05-15T16:23:45;19.50;99.90
6146;DHT22;3104;50.348;7.620;2023-05-15T16:26:11;19.70;99.90
6146;DHT22;3104;50.348;7.620;2023-05-15T16:28:36;20.20;99.90
6146;DHT22;3104;50.348;7.620;2023-05-15T16:31:03;20.80;99.90
6146;DHT22;3104;50.348;7.620;2023-05-15T16:33:29;20.40;1.00
6146;DHT22;3104;50.348;7.620;2023-05-15T16:35:55;20.40;1.00
6146;DHT22;3104;50.348;7.620;2023-05-15T16:38:21;20.60;1.00
6146;DHT22;3104;50.348;7.620;2023-05-15T16:40:48;20.60;1.00